sensor_id;sensor_type;location;lat;lon;timestamp;temperature;humidity
4985;DHT22;2509;49.902;8.600;2023-12-28T00:01:25;7.60;99.90
4985;DHT22;2509;49.902;8.600;2023-12-28T00:04:27;7.60;99.90
4985;DHT22;2509;49.902;8.600;2023-12-28T00:07:30;7.60;99.90
4985;DHT22;2509;49.902;8.600;2023-12-28T00:10:33;7.60;99.90
4985;DHT22;2509;49.902;8.600;2023-12-28T00:13:37;7.60;99.90
4985;DHT22;2509;49.902;8.600;2023-12-28T00:16:39;7.60;99.90
4985;DHT22;2509;49.902;8.600;2023-12-28T00:19:40;7.60;99.90
4985;DHT22;2509;49.902;8.600;2023-12-28T00:22:42;7.70;99.90
4985;DHT22;2509;49.902;8.600;2023-12-28T00:25:45;7.70;99.90
4985;DHT22;2509;49.902;8.600;2023-12-28T00:28:47;7.70;99.90
4985;DHT22;2509;49.902;8.600;2023-12-28T00:31:49;7.70;99.90
4985;DHT22;2509;49.902;8.600;2023-12-28T00:34:51;7.80;99.90
4985;DHT22;2509;49.902;8.600;2023-12-28T00:37:52;7.80;99.90
4985;DHT22;2509;49.902;8.600;2023-12-28T00:40:57;7.80;99.90
4985;DHT22;2509;49.902;8.600;2023-12-28T00:43:59;7.80;99.90
4985;DHT22;2509;49.902;8.600;2023-12-28T00:47:01;7.80;99.90
4985;DHT22;2509;49.902;8.600;2023-12-28T00:50:03;7.80;99.90
4985;DHT22;2509;49.902;8.600;2023-12-28T00:53:05;7.90;99.90
4985;DHT22;2509;49.902;8.600;2023-12-28T00:56:09;7.90;99.90
4985;DHT22;2509;49.902;8.600;2023-12-28T00:59:11;8.00;99.90
4985;DHT22;2509;49.902;8.600;2023-12-28T01:02:12;8.00;99.90
4985;DHT22;2509;49.902;8.600;2023-12-28T01:05:14;8.10;99.90
4985;DHT22;2509;49.902;8.600;2023-12-28T01:08:16;8.20;99.90
4985;DHT22;2509;49.902;8.600;2023-12-28T01:11:19;8.30;99.90
4985;DHT22;2509;49.902;8.600;2023-12-28T01:14:21;8.40;99.90
4985;DHT22;2509;49.902;8.600;2023-12-28T01:17:23;8.40;99.90
4985;DHT22;2509;49.902;8.600;2023-12-28T01:20:24;8.50;99.90
4985;DHT22;2509;49.902;8.600;2023-12-28T01:23:26;8.60;99.90
4985;DHT22;2509;49.902;8.600;2023-12-28T01:26:29;8.70;99.90
4985;DHT22;2509;49.902;8.600;2023-12-28T01:29:31;8.80;99.90
4985;DHT22;2509;49.902;8.600;2023-12-28T01:32:34;8.80;99.90
4985;DHT22;2509;49.902;8.600;2023-12-28T01:35:36;8.90;99.90
4985;DHT22;2509;49.902;8.600;2023-12-28T01:38:38;8.90;99.90
4985;DHT22;2509;49.902;8.600;2023-12-28T01:41:41;9.10;99.90
4985;DHT22;2509;49.902;8.600;2023-12-28T01:44:45;9.20;99.90
4985;DHT22;2509;49.902;8.600;2023-12-28T01:47:47;9.20;99.90
4985;DHT22;2509;49.902;8.600;2023-12-28T01:50:50;9.20;99.90
4985;DHT22;2509;49.902;8.600;2023-12-28T01:53:52;9.30;99.90
4985;DHT22;2509;49.902;8.600;2023-12-28T01:56:55;9.30;99.90
4985;DHT22;2509;49.902;8.600;2023-12-28T01:59:58;9.20;99.90
4985;DHT22;2509;49.902;8.600;2023-12-28T02:03:02;9.20;99.90
4985;DHT22;2509;49.902;8.600;2023-12-28T02:06:05;9.30;99.90
4985;DHT22;2509;49.902;8.600;2023-12-28T02:09:08;9.30;99.90
4985;DHT22;2509;49.902;8.600;2023-12-28T02:12:11;9.30;99.90
4985;DHT22;2509;49.902;8.600;2023-12-28T02:15:13;9.20;99.90
4985;DHT22;2509;49.902;8.600;2023-12-28T02:18:21;9.20;99.90
4985;DHT22;2509;49.902;8.600;2023-12-28T02:21:25;9.20;99.90
4985;DHT22;2509;49.902;8.600;2023-12-28T02:24:28;9.20;99.90
4985;DHT22;2509;49.902;8.600;2023-12-28T02:27:31;9.20;99.90
4985;DHT22;2509;49.902;8.600;2023-12-28T02:30:33;9.20;99.90
4985;DHT22;2509;49.902;8.600;2023-12-28T02:33:41;9.20;99.90
4985;DHT22;2509;49.902;8.600;2023-12-28T02:36:45;9.20;99.90
4985;DHT22;2509;49.902;8.600;2023-12-28T02:39:49;9.20;99.90
4985;DHT22;2509;49.902;8.600;2023-12-28T02:42:54;9.20;99.90
4985;DHT22;2509;49.902;8.600;2023-12-28T02:45:56;9.20;99.90
4985;DHT22;2509;49.902;8.600;2023-12-28T02:48:57;9.10;99.90
4985;DHT22;2509;49.902;8.600;2023-12-28T02:51:59;9.10;99.90
4985;DHT22;2509;49.902;8.600;2023-12-28T02:55:01;9.10;99.90
4985;DHT22;2509;49.902;8.600;2023-12-28T02:58:04;9.10;99.90
4985;DHT22;2509;49.902;8.600;2023-12-28T03:01:06;9.10;99.90
4985;DHT22;2509;49.902;8.600;2023-12-28T03:04:08;9.00;99.90
4985;DHT22;2509;49.902;8.600;2023-12-28T03:07:10;9.00;99.90
4985;DHT22;2509;49.902;8.600;2023-12-28T03:10:11;9.00;99.90
4985;DHT22;2509;49.902;8.600;2023-12-28T03:13:15;9.00;99.90
4985;DHT22;2509;49.902;8.600;2023-12-28T03:16:16;9.00;99.90
4985;DHT22;2509;49.902;8.600;2023-12-28T03:19:18;9.00;99.90
4985;DHT22;2509;49.902;8.600;2023-12-28T03:22:20;8.90;99.90
4985;DHT22;2509;49.902;8.600;2023-12-28T03:25:21;8.90;99.90
4985;DHT22;2509;49.902;8.600;2023-12-28T03:28:25;8.90;99.90
4985;DHT22;2509;49.902;8.600;2023-12-28T03:31:26;8.90;99.90
4985;DHT22;2509;49.902;8.600;2023-12-28T03:34:28;8.90;99.90
4985;DHT22;2509;49.902;8.600;2023-12-28T03:37:30;8.90;99.90
4985;DHT22;2509;49.902;8.600;2023-12-28T03:40:32;8.90;99.90
4985;DHT22;2509;49.902;8.600;2023-12-28T03:43:35;8.90;99.90
4985;DHT22;2509;49.902;8.600;2023-12-28T03:46:37;8.80;99.90
4985;DHT22;2509;49.902;8.600;2023-12-28T03:49:39;8.80;99.90
4985;DHT22;2509;49.902;8.600;2023-12-28T03:52:41;8.80;99.90
4985;DHT22;2509;49.902;8.600;2023-12-28T03:55:42;8.70;99.90
4985;DHT22;2509;49.902;8.600;2023-12-28T03:58:45;8.80;99.90
4985;DHT22;2509;49.902;8.600;2023-12-28T04:01:47;8.80;99.90
4985;DHT22;2509;49.902;8.600;2023-12-28T04:04:49;8.80;99.90
4985;DHT22;2509;49.902;8.600;2023-12-28T04:07:52;8.80;99.90
4985;DHT22;2509;49.902;8.600;2023-12-28T04:10:54;8.80;99.90
4985;DHT22;2509;49.902;8.600;2023-12-28T04:13:57;8.80;99.90
4985;DHT22;2509;49.902;8.600;2023-12-28T04:16:59;8.80;99.90
4985;DHT22;2509;49.902;8.600;2023-12-28T04:20:00;8.80;99.90
4985;DHT22;2509;49.902;8.600;2023-12-28T04:23:03;8.80;99.90
4985;DHT22;2509;49.902;8.600;2023-12-28T04:26:05;8.90;99.90
4985;DHT22;2509;49.902;8.600;2023-12-28T04:29:08;8.90;99.90
4985;DHT22;2509;49.902;8.600;2023-12-28T04:32:10;8.90;99.90
4985;DHT22;2509;49.902;8.600;2023-12-28T04:35:12;9.00;99.90
4985;DHT22;2509;49.902;8.600;2023-12-28T04:38:13;9.10;99.90
4985;DHT22;2509;49.902;8.600;2023-12-28T04:41:15;9.10;99.90
4985;DHT22;2509;49.902;8.600;2023-12-28T04:44:18;9.10;99.90
4985;DHT22;2509;49.902;8.600;2023-12-28T04:47:20;9.10;99.90
4985;DHT22;2509;49.902;8.600;2023-12-28T04:50:22;9.20;99.90
4985;DHT22;2509;49.902;8.600;2023-12-28T04:53:23;9.20;99.90
4985;DHT22;2509;49.902;8.600;2023-12-28T04:56:25;9.20;99.90
4985;DHT22;2509;49.902;8.600;2023-12-28T04:59:28;9.20;99.90
4985;DHT22;2509;49.902;8.600;2023-12-28T05:02:30;9.20;99.90
4985;DHT22;2509;49.902;8.600;2023-12-28T05:05:32;9.20;99.90
4985;DHT22;2509;49.902;8.600;2023-12-28T05:08:33;9.30;99.90
4985;DHT22;2509;49.902;8.600;2023-12-28T05:11:36;9.30;99.90
4985;DHT22;2509;49.902;8.600;2023-12-28T05:14:39;9.30;99.90
4985;DHT22;2509;49.902;8.600;2023-12-28T05:17:40;9.20;99.90
4985;DHT22;2509;49.902;8.600;2023-12-28T05:20:44;9.30;99.90
4985;DHT22;2509;49.902;8.600;2023-12-28T05:23:45;9.40;99.90
4985;DHT22;2509;49.902;8.600;2023-12-28T05:26:47;9.40;99.90
4985;DHT22;2509;49.902;8.600;2023-12-28T05:29:50;9.30;99.90
4985;DHT22;2509;49.902;8.600;2023-12-28T05:32:52;9.30;99.90
4985;DHT22;2509;49.902;8.600;2023-12-28T05:35:54;9.30;99.90
4985;DHT22;2509;49.902;8.600;2023-12-28T05:38:55;9.30;99.90
4985;DHT22;2509;49.902;8.600;2023-12-28T05:41:57;9.30;99.90
4985;DHT22;2509;49.902;8.600;2023-12-28T05:45:00;9.30;99.90
4985;DHT22;2509;49.902;8.600;2023-12-28T05:48:02;9.30;99.90
4985;DHT22;2509;49.902;8.600;2023-12-28T05:51:04;9.30;99.90
4985;DHT22;2509;49.902;8.600;2023-12-28T05:54:06;9.30;99.90
4985;DHT22;2509;49.902;8.600;2023-12-28T05:57:08;9.30;99.90
4985;DHT22;2509;49.902;8.600;2023-12-28T06:00:12;9.30;99.90
4985;DHT22;2509;49.902;8.600;2023-12-28T06:03:14;9.30;99.90
4985;DHT22;2509;49.902;8.600;2023-12-28T06:06:16;9.30;99.90
4985;DHT22;2509;49.902;8.600;2023-12-28T06:09:18;9.30;99.90
4985;DHT22;2509;49.902;8.600;2023-12-28T06:12:19;9.30;99.90
4985;DHT22;2509;49.902;8.600;2023-12-28T06:15:23;9.30;99.90
4985;DHT22;2509;49.902;8.600;2023-12-28T06:18:24;9.40;99.90
4985;DHT22;2509;49.902;8.600;2023-12-28T06:21:26;9.40;99.90
4985;DHT22;2509;49.902;8.600;2023-12-28T06:24:28;9.40;99.90
4985;DHT22;2509;49.902;8.600;2023-12-28T06:27:30;9.40;99.90
4985;DHT22;2509;49.902;8.600;2023-12-28T06:30:33;9.40;99.90
4985;DHT22;2509;49.902;8.600;2023-12-28T06:33:35;9.40;99.90
4985;DHT22;2509;49.902;8.600;2023-12-28T06:36:37;9.40;99.90
4985;DHT22;2509;49.902;8.600;2023-12-28T06:39:39;9.40;99.90
4985;DHT22;2509;49.902;8.600;2023-12-28T06:42:40;9.40;99.90
4985;DHT22;2509;49.902;8.600;2023-12-28T06:45:45;9.40;99.90
4985;DHT22;2509;49.902;8.600;2023-12-28T06:48:47;9.50;99.90
4985;DHT22;2509;49.902;8.600;2023-12-28T06:51:49;9.50;99.90
4985;DHT22;2509;49.902;8.600;2023-12-28T06:54:51;9.40;99.90
4985;DHT22;2509;49.902;8.600;2023-12-28T06:57:52;9.40;99.90
4985;DHT22;2509;49.902;8.600;2023-12-28T07:00:55;9.40;99.90
4985;DHT22;2509;49.902;8.600;2023-12-28T07:03:58;9.40;99.90
4985;DHT22;2509;49.902;8.600;2023-12-28T07:07:00;9.40;99.90
4985;DHT22;2509;49.902;8.600;2023-12-28T07:10:02;9.40;99.90
4985;DHT22;2509;49.902;8.600;2023-12-28T07:13:04;9.40;99.90
4985;DHT22;2509;49.902;8.600;2023-12-28T07:16:07;9.40;99.90
4985;DHT22;2509;49.902;8.600;2023-12-28T07:19:09;9.40;99.90
4985;DHT22;2509;49.902;8.600;2023-12-28T07:22:11;9.40;99.90
4985;DHT22;2509;49.902;8.600;2023-12-28T07:25:13;9.40;99.90
4985;DHT22;2509;49.902;8.600;2023-12-28T07:28:14;9.40;99.90
4985;DHT22;2509;49.902;8.600;2023-12-28T07:31:23;9.40;99.90
4985;DHT22;2509;49.902;8.600;2023-12-28T07:34:25;9.40;99.90
4985;DHT22;2509;49.902;8.600;2023-12-28T07:37:28;9.40;99.90
4985;DHT22;2509;49.902;8.600;2023-12-28T07:40:30;9.40;99.90
4985;DHT22;2509;49.902;8.600;2023-12-28T07:43:31;9.40;99.90
4985;DHT22;2509;49.902;8.600;2023-12-28T07:46:34;9.40;99.90
4985;DHT22;2509;49.902;8.600;2023-12-28T07:49:36;9.50;99.90
4985;DHT22;2509;49.902;8.600;2023-12-28T07:52:38;9.40;99.90
4985;DHT22;2509;49.902;8.600;2023-12-28T07:55:40;9.40;99.90
4985;DHT22;2509;49.902;8.600;2023-12-28T07:58:41;9.40;99.90
4985;DHT22;2509;49.902;8.600;2023-12-28T08:01:44;9.40;99.90
4985;DHT22;2509;49.902;8.600;2023-12-28T08:04:46;9.30;99.90
4985;DHT22;2509;49.902;8.600;2023-12-28T08:07:49;9.30;99.90
4985;DHT22;2509;49.902;8.600;2023-12-28T08:10:50;9.30;99.90
4985;DHT22;2509;49.902;8.600;2023-12-28T08:13:52;9.30;99.90
4985;DHT22;2509;49.902;8.600;2023-12-28T08:16:55;9.30;99.90
4985;DHT22;2509;49.902;8.600;2023-12-28T08:19:57;9.30;99.90
4985;DHT22;2509;49.902;8.600;2023-12-28T08:22:59;9.30;99.90
4985;DHT22;2509;49.902;8.600;2023-12-28T08:26:01;9.30;99.90
4985;DHT22;2509;49.902;8.600;2023-12-28T08:29:03;9.40;99.90
4985;DHT22;2509;49.902;8.600;2023-12-28T08:32:06;9.40;99.90
4985;DHT22;2509;49.902;8.600;2023-12-28T08:35:08;9.40;99.90
4985;DHT22;2509;49.902;8.600;2023-12-28T08:38:10;9.40;99.90
4985;DHT22;2509;49.902;8.600;2023-12-28T08:41:18;9.40;99.90
4985;DHT22;2509;49.902;8.600;2023-12-28T08:44:19;9.50;99.90
4985;DHT22;2509;49.902;8.600;2023-12-28T08:47:23;9.50;99.90
4985;DHT22;2509;49.902;8.600;2023-12-28T08:50:24;9.50;99.90
4985;DHT22;2509;49.902;8.600;2023-12-28T08:53:26;9.60;99.90
4985;DHT22;2509;49.902;8.600;2023-12-28T08:56:28;9.60;99.90
4985;DHT22;2509;49.902;8.600;2023-12-28T08:59:30;9.60;99.90
4985;DHT22;2509;49.902;8.600;2023-12-28T09:02:33;9.60;99.90
4985;DHT22;2509;49.902;8.600;2023-12-28T09:05:35;9.60;99.90
4985;DHT22;2509;49.902;8.600;2023-12-28T09:08:37;9.60;99.90
4985;DHT22;2509;49.902;8.600;2023-12-28T09:11:39;9.70;99.90
4985;DHT22;2509;49.902;8.600;2023-12-28T09:14:41;9.70;99.90
4985;DHT22;2509;49.902;8.600;2023-12-28T09:17:44;9.70;99.90
4985;DHT22;2509;49.902;8.600;2023-12-28T09:20:46;9.70;99.90
4985;DHT22;2509;49.902;8.600;2023-12-28T09:23:49;9.70;99.90
4985;DHT22;2509;49.902;8.600;2023-12-28T09:26:51;9.70;99.90
4985;DHT22;2509;49.902;8.600;2023-12-28T09:29:53;9.80;99.90
4985;DHT22;2509;49.902;8.600;2023-12-28T09:32:56;9.90;99.90
4985;DHT22;2509;49.902;8.600;2023-12-28T09:35:59;10.00;99.90
4985;DHT22;2509;49.902;8.600;2023-12-28T09:39:01;10.10;99.90
4985;DHT22;2509;49.902;8.600;2023-12-28T09:42:06;10.10;99.90
4985;DHT22;2509;49.902;8.600;2023-12-28T09:45:11;10.20;99.90
4985;DHT22;2509;49.902;8.600;2023-12-28T09:48:16;10.30;99.90
4985;DHT22;2509;49.902;8.600;2023-12-28T09:51:18;10.50;99.90
4985;DHT22;2509;49.902;8.600;2023-12-28T09:54:20;10.60;99.90
4985;DHT22;2509;49.902;8.600;2023-12-28T09:57:22;10.60;99.90
4985;DHT22;2509;49.902;8.600;2023-12-28T10:00:24;10.70;99.90
4985;DHT22;2509;49.902;8.600;2023-12-28T10:03:27;10.80;99.90
4985;DHT22;2509;49.902;8.600;2023-12-28T10:06:29;11.00;99.90
4985;DHT22;2509;49.902;8.600;2023-12-28T10:09:31;11.10;99.90
4985;DHT22;2509;49.902;8.600;2023-12-28T10:12:33;11.00;99.90
4985;DHT22;2509;49.902;8.600;2023-12-28T10:15:36;10.90;99.90
4985;DHT22;2509;49.902;8.600;2023-12-28T10:18:41;10.90;99.90
4985;DHT22;2509;49.902;8.600;2023-12-28T10:21:43;10.90;99.90
4985;DHT22;2509;49.902;8.600;2023-12-28T10:24:46;10.90;99.90
4985;DHT22;2509;49.902;8.600;2023-12-28T10:27:50;11.00;99.90
4985;DHT22;2509;49.902;8.600;2023-12-28T10:30:54;10.90;99.90
4985;DHT22;2509;49.902;8.600;2023-12-28T10:33:59;11.00;99.90
4985;DHT22;2509;49.902;8.600;2023-12-28T10:37:03;11.00;99.90
4985;DHT22;2509;49.902;8.600;2023-12-28T10:40:07;10.90;99.90
4985;DHT22;2509;49.902;8.600;2023-12-28T10:43:11;10.90;99.90
4985;DHT22;2509;49.902;8.600;2023-12-28T10:46:24;10.80;99.90
4985;DHT22;2509;49.902;8.600;2023-12-28T10:49:30;10.70;99.90
4985;DHT22;2509;49.902;8.600;2023-12-28T10:52:35;10.70;99.90
4985;DHT22;2509;49.902;8.600;2023-12-28T10:55:43;10.60;99.90
4985;DHT22;2509;49.902;8.600;2023-12-28T10:58:49;10.60;99.90
4985;DHT22;2509;49.902;8.600;2023-12-28T11:01:55;10.50;99.90
4985;DHT22;2509;49.902;8.600;2023-12-28T11:04:59;10.40;99.90
4985;DHT22;2509;49.902;8.600;2023-12-28T11:08:02;10.40;99.90
4985;DHT22;2509;49.902;8.600;2023-12-28T11:11:05;10.40;99.90
4985;DHT22;2509;49.902;8.600;2023-12-28T11:14:08;10.40;99.90
4985;DHT22;2509;49.902;8.600;2023-12-28T11:17:10;10.40;99.90
4985;DHT22;2509;49.902;8.600;2023-12-28T11:20:15;10.30;99.90
4985;DHT22;2509;49.902;8.600;2023-12-28T11:23:18;10.30;99.90
4985;DHT22;2509;49.902;8.600;2023-12-28T11:26:21;10.30;99.90
4985;DHT22;2509;49.902;8.600;2023-12-28T11:29:23;10.50;99.90
4985;DHT22;2509;49.902;8.600;2023-12-28T11:32:26;10.80;99.90
4985;DHT22;2509;49.902;8.600;2023-12-28T11:35:34;11.20;99.90
4985;DHT22;2509;49.902;8.600;2023-12-28T11:38:38;11.60;99.90
4985;DHT22;2509;49.902;8.600;2023-12-28T11:41:42;11.90;99.90
4985;DHT22;2509;49.902;8.600;2023-12-28T11:44:44;12.40;99.90
4985;DHT22;2509;49.902;8.600;2023-12-28T11:47:46;12.70;99.90
4985;DHT22;2509;49.902;8.600;2023-12-28T11:50:49;12.70;99.90
4985;DHT22;2509;49.902;8.600;2023-12-28T11:53:53;12.40;99.90
4985;DHT22;2509;49.902;8.600;2023-12-28T11:57:01;12.10;99.90
4985;DHT22;2509;49.902;8.600;2023-12-28T12:00:07;11.80;99.90
4985;DHT22;2509;49.902;8.600;2023-12-28T12:03:14;11.70;99.90
4985;DHT22;2509;49.902;8.600;2023-12-28T12:06:19;12.10;99.90
4985;DHT22;2509;49.902;8.600;2023-12-28T12:09:29;12.30;99.90
4985;DHT22;2509;49.902;8.600;2023-12-28T12:12:40;12.50;99.90
4985;DHT22;2509;49.902;8.600;2023-12-28T12:15:43;12.60;99.90
4985;DHT22;2509;49.902;8.600;2023-12-28T12:18:49;12.70;99.90
4985;DHT22;2509;49.902;8.600;2023-12-28T12:22:02;12.90;99.90
4985;DHT22;2509;49.902;8.600;2023-12-28T12:25:08;13.00;99.90
4985;DHT22;2509;49.902;8.600;2023-12-28T12:28:17;12.70;99.90
4985;DHT22;2509;49.902;8.600;2023-12-28T12:31:42;12.40;99.90
4985;DHT22;2509;49.902;8.600;2023-12-28T12:34:56;12.10;99.90
4985;DHT22;2509;49.902;8.600;2023-12-28T12:38:21;12.10;99.90
4985;DHT22;2509;49.902;8.600;2023-12-28T12:41:24;12.40;99.90
4985;DHT22;2509;49.902;8.600;2023-12-28T12:44:44;12.60;99.90
4985;DHT22;2509;49.902;8.600;2023-12-28T12:47:48;13.20;99.90
4985;DHT22;2509;49.902;8.600;2023-12-28T12:50:54;13.40;99.90
4985;DHT22;2509;49.902;8.600;2023-12-28T12:54:01;12.90;99.90
4985;DHT22;2509;49.902;8.600;2023-12-28T12:57:04;12.70;99.90
4985;DHT22;2509;49.902;8.600;2023-12-28T13:00:12;12.50;99.90
4985;DHT22;2509;49.902;8.600;2023-12-28T13:03:19;12.40;99.90
4985;DHT22;2509;49.902;8.600;2023-12-28T13:06:29;12.10;99.90
4985;DHT22;2509;49.902;8.600;2023-12-28T13:09:34;12.10;99.90
4985;DHT22;2509;49.902;8.600;2023-12-28T13:12:39;12.90;99.90
4985;DHT22;2509;49.902;8.600;2023-12-28T13:15:41;13.00;99.90
4985;DHT22;2509;49.902;8.600;2023-12-28T13:18:46;12.60;99.90
4985;DHT22;2509;49.902;8.600;2023-12-28T13:21:50;12.30;99.90
4985;DHT22;2509;49.902;8.600;2023-12-28T13:25:00;12.40;99.90
4985;DHT22;2509;49.902;8.600;2023-12-28T13:28:03;12.20;99.90
4985;DHT22;2509;49.902;8.600;2023-12-28T13:31:12;12.10;99.90
4985;DHT22;2509;49.902;8.600;2023-12-28T13:34:14;11.80;99.90
4985;DHT22;2509;49.902;8.600;2023-12-28T13:37:16;12.10;99.90
4985;DHT22;2509;49.902;8.600;2023-12-28T13:40:19;11.70;99.90
4985;DHT22;2509;49.902;8.600;2023-12-28T13:43:21;11.50;99.90
4985;DHT22;2509;49.902;8.600;2023-12-28T13:46:22;11.30;99.90
4985;DHT22;2509;49.902;8.600;2023-12-28T13:49:24;11.10;99.90
4985;DHT22;2509;49.902;8.600;2023-12-28T13:52:26;10.90;99.90
4985;DHT22;2509;49.902;8.600;2023-12-28T13:55:30;10.70;99.90
4985;DHT22;2509;49.902;8.600;2023-12-28T13:58:33;10.60;99.90
4985;DHT22;2509;49.902;8.600;2023-12-28T14:01:35;10.50;99.90
4985;DHT22;2509;49.902;8.600;2023-12-28T14:04:37;10.40;99.90
4985;DHT22;2509;49.902;8.600;2023-12-28T14:07:39;10.40;99.90
4985;DHT22;2509;49.902;8.600;2023-12-28T14:10:42;10.40;99.90
4985;DHT22;2509;49.902;8.600;2023-12-28T14:13:44;10.30;99.90
4985;DHT22;2509;49.902;8.600;2023-12-28T14:16:46;10.20;99.90
4985;DHT22;2509;49.902;8.600;2023-12-28T14:19:48;10.20;99.90
4985;DHT22;2509;49.902;8.600;2023-12-28T14:22:50;10.20;99.90
4985;DHT22;2509;49.902;8.600;2023-12-28T14:25:54;10.20;99.90
4985;DHT22;2509;49.902;8.600;2023-12-28T14:28:56;10.30;99.90
4985;DHT22;2509;49.902;8.600;2023-12-28T14:31:58;10.30;99.90
4985;DHT22;2509;49.902;8.600;2023-12-28T14:35:00;10.30;99.90
4985;DHT22;2509;49.902;8.600;2023-12-28T14:38:03;10.40;99.90
4985;DHT22;2509;49.902;8.600;2023-12-28T14:41:06;10.40;99.90
4985;DHT22;2509;49.902;8.600;2023-12-28T14:44:08;10.50;99.90
4985;DHT22;2509;49.902;8.600;2023-12-28T14:47:09;10.60;99.90
4985;DHT22;2509;49.902;8.600;2023-12-28T14:50:11;10.50;99.90
4985;DHT22;2509;49.902;8.600;2023-12-28T14:53:13;10.30;99.90
4985;DHT22;2509;49.902;8.600;2023-12-28T14:56:18;10.20;99.90
4985;DHT22;2509;49.902;8.600;2023-12-28T14:59:19;10.20;99.90
4985;DHT22;2509;49.902;8.600;2023-12-28T15:02:21;10.20;99.90
4985;DHT22;2509;49.902;8.600;2023-12-28T15:05:23;10.20;99.90
4985;DHT22;2509;49.902;8.600;2023-12-28T15:08:25;10.10;99.90
4985;DHT22;2509;49.902;8.600;2023-12-28T15:11:28;10.00;99.90
4985;DHT22;2509;49.902;8.600;2023-12-28T15:14:31;10.00;99.90
4985;DHT22;2509;49.902;8.600;2023-12-28T15:17:33;9.90;99.90
4985;DHT22;2509;49.902;8.600;2023-12-28T15:20:35;9.90;99.90
4985;DHT22;2509;49.902;8.600;2023-12-28T15:23:38;9.80;99.90
4985;DHT22;2509;49.902;8.600;2023-12-28T15:26:41;9.80;99.90
4985;DHT22;2509;49.902;8.600;2023-12-28T15:29:43;9.80;99.90
4985;DHT22;2509;49.902;8.600;2023-12-28T15:32:45;9.80;99.90
4985;DHT22;2509;49.902;8.600;2023-12-28T15:35:47;9.80;99.90
4985;DHT22;2509;49.902;8.600;2023-12-28T15:38:48;9.70;99.90
4985;DHT22;2509;49.902;8.600;2023-12-28T15:41:52;9.70;99.90
4985;DHT22;2509;49.902;8.600;2023-12-28T15:44:54;9.70;99.90
4985;DHT22;2509;49.902;8.600;2023-12-28T15:47:57;9.70;99.90
4985;DHT22;2509;49.902;8.600;2023-12-28T15:51:00;9.60;99.90
4985;DHT22;2509;49.902;8.600;2023-12-28T15:54:02;9.60;99.90
4985;DHT22;2509;49.902;8.600;2023-12-28T15:57:09;9.60;99.90
4985;DHT22;2509;49.902;8.600;2023-12-28T16:00:12;9.50;99.90
4985;DHT22;2509;49.902;8.600;2023-12-28T16:03:14;9.50;99.90
4985;DHT22;2509;49.902;8.600;2023-12-28T16:06:16;9.40;99.90
4985;DHT22;2509;49.902;8.600;2023-12-28T16:09:18;9.40;99.90
4985;DHT22;2509;49.902;8.600;2023-12-28T16:12:34;9.30;99.90
4985;DHT22;2509;49.902;8.600;2023-12-28T16:15:52;9.30;99.90
4985;DHT22;2509;49.902;8.600;2023-12-28T16:19:18;9.20;99.90
4985;DHT22;2509;49.902;8.600;2023-12-28T16:22:52;9.10;99.90
4985;DHT22;2509;49.902;8.600;2023-12-28T16:26:01;9.10;99.90
4985;DHT22;2509;49.902;8.600;2023-12-28T16:29:10;9.10;99.90
4985;DHT22;2509;49.902;8.600;2023-12-28T16:32:12;9.10;99.90
4985;DHT22;2509;49.902;8.600;2023-12-28T16:38:49;9.10;99.90
4985;DHT22;2509;49.902;8.600;2023-12-28T16:42:10;9.00;99.90
4985;DHT22;2509;49.902;8.600;2023-12-28T16:45:16;9.00;99.90
4985;DHT22;2509;49.902;8.600;2023-12-28T16:48:37;9.00;99.90
4985;DHT22;2509;49.902;8.600;2023-12-28T16:51:40;9.00;99.90
4985;DHT22;2509;49.902;8.600;2023-12-28T16:54:41;9.00;99.90
4985;DHT22;2509;49.902;8.600;2023-12-28T16:57:43;9.00;99.90
4985;DHT22;2509;49.902;8.600;2023-12-28T17:00:46;9.00;99.90
4985;DHT22;2509;49.902;8.600;2023-12-28T17:03:48;9.00;99.90
4985;DHT22;2509;49.902;8.600;2023-12-28T17:06:50;8.90;99.90
4985;DHT22;2509;49.902;8.600;2023-12-28T17:09:52;8.90;99.90
4985;DHT22;2509;49.902;8.600;2023-12-28T17:12:55;8.90;99.90
4985;DHT22;2509;49.902;8.600;2023-12-28T17:15:59;8.90;99.90
4985;DHT22;2509;49.902;8.600;2023-12-28T17:19:01;8.80;99.90
4985;DHT22;2509;49.902;8.600;2023-12-28T17:22:03;8.80;99.90
4985;DHT22;2509;49.902;8.600;2023-12-28T17:25:10;8.70;99.90
4985;DHT22;2509;49.902;8.600;2023-12-28T17:28:15;8.70;99.90
4985;DHT22;2509;49.902;8.600;2023-12-28T17:31:23;8.70;99.90
4985;DHT22;2509;49.902;8.600;2023-12-28T17:34:25;8.70;99.90
4985;DHT22;2509;49.902;8.600;2023-12-28T17:37:27;8.70;99.90
4985;DHT22;2509;49.902;8.600;2023-12-28T17:40:30;8.70;99.90
4985;DHT22;2509;49.902;8.600;2023-12-28T17:43:37;8.70;99.90
4985;DHT22;2509;49.902;8.600;2023-12-28T17:46:47;8.60;99.90
4985;DHT22;2509;49.902;8.600;2023-12-28T17:49:50;8.60;99.90
4985;DHT22;2509;49.902;8.600;2023-12-28T17:52:52;8.60;99.90
4985;DHT22;2509;49.902;8.600;2023-12-28T17:55:54;8.60;99.90
4985;DHT22;2509;49.902;8.600;2023-12-28T17:58:56;8.60;99.90
4985;DHT22;2509;49.902;8.600;2023-12-28T18:01:59;8.60;99.90
4985;DHT22;2509;49.902;8.600;2023-12-28T18:05:01;8.60;99.90
4985;DHT22;2509;49.902;8.600;2023-12-28T18:08:03;8.60;99.90
4985;DHT22;2509;49.902;8.600;2023-12-28T18:11:05;8.60;99.90
4985;DHT22;2509;49.902;8.600;2023-12-28T18:14:07;8.60;99.90
4985;DHT22;2509;49.902;8.600;2023-12-28T18:17:10;8.60;99.90
4985;DHT22;2509;49.902;8.600;2023-12-28T18:20:12;8.60;99.90
4985;DHT22;2509;49.902;8.600;2023-12-28T18:23:14;8.50;99.90
4985;DHT22;2509;49.902;8.600;2023-12-28T18:26:15;8.50;99.90
4985;DHT22;2509;49.902;8.600;2023-12-28T18:29:18;8.50;99.90
4985;DHT22;2509;49.902;8.600;2023-12-28T18:32:21;8.40;99.90
4985;DHT22;2509;49.902;8.600;2023-12-28T18:35:22;8.40;99.90
4985;DHT22;2509;49.902;8.600;2023-12-28T18:38:24;8.40;99.90
4985;DHT22;2509;49.902;8.600;2023-12-28T18:41:26;8.40;99.90
4985;DHT22;2509;49.902;8.600;2023-12-28T18:44:28;8.40;99.90
4985;DHT22;2509;49.902;8.600;2023-12-28T18:47:35;8.40;99.90
4985;DHT22;2509;49.902;8.600;2023-12-28T18:50:37;8.50;99.90
4985;DHT22;2509;49.902;8.600;2023-12-28T18:53:38;8.50;99.90
4985;DHT22;2509;49.902;8.600;2023-12-28T18:56:43;8.50;99.90
4985;DHT22;2509;49.902;8.600;2023-12-28T18:59:45;8.50;99.90
4985;DHT22;2509;49.902;8.600;2023-12-28T19:02:48;8.50;99.90
4985;DHT22;2509;49.902;8.600;2023-12-28T19:05:50;8.60;99.90
4985;DHT22;2509;49.902;8.600;2023-12-28T19:08:52;8.60;99.90
4985;DHT22;2509;49.902;8.600;2023-12-28T19:11:54;8.60;99.90
4985;DHT22;2509;49.902;8.600;2023-12-28T19:14:55;8.60;99.90
4985;DHT22;2509;49.902;8.600;2023-12-28T19:17:58;8.70;99.90
4985;DHT22;2509;49.902;8.600;2023-12-28T19:21:00;8.70;99.90
4985;DHT22;2509;49.902;8.600;2023-12-28T19:24:02;8.70;99.90
4985;DHT22;2509;49.902;8.600;2023-12-28T19:27:04;8.80;99.90
4985;DHT22;2509;49.902;8.600;2023-12-28T19:30:07;8.80;99.90
4985;DHT22;2509;49.902;8.600;2023-12-28T19:33:10;8.90;99.90
4985;DHT22;2509;49.902;8.600;2023-12-28T19:36:12;8.90;99.90
4985;DHT22;2509;49.902;8.600;2023-12-28T19:39:13;8.90;99.90
4985;DHT22;2509;49.902;8.600;2023-12-28T19:42:15;8.90;99.90
4985;DHT22;2509;49.902;8.600;2023-12-28T19:45:17;9.00;99.90
4985;DHT22;2509;49.902;8.600;2023-12-28T19:48:20;9.00;99.90
4985;DHT22;2509;49.902;8.600;2023-12-28T19:51:22;9.00;99.90
4985;DHT22;2509;49.902;8.600;2023-12-28T19:54:23;9.10;99.90
4985;DHT22;2509;49.902;8.600;2023-12-28T19:57:25;9.10;99.90
4985;DHT22;2509;49.902;8.600;2023-12-28T20:00:28;9.10;99.90
4985;DHT22;2509;49.902;8.600;2023-12-28T20:03:32;9.10;99.90
4985;DHT22;2509;49.902;8.600;2023-12-28T20:06:33;9.00;99.90
4985;DHT22;2509;49.902;8.600;2023-12-28T20:09:35;9.00;99.90
4985;DHT22;2509;49.902;8.600;2023-12-28T20:12:38;9.00;99.90